Time;durP1;ratioP1;P1;durP2;ratioP2;P2;SDS_P1;SDS_P2;PMS_P1;PMS_P2;Temp;Humidity;BMP_temperature;BMP_pressure;BME280_temperature;BME280_humidity;BME280_pressure;Samples;Min_cycle;Max_cycle;Signal;HPM_P1;HPM_P2
2022/10/07 00:01:31;;;;;;;7.30;3.13;;;;;;;9.10;nan;-24071.16;5094382;28;20204;-77
2022/10/07 00:03:57;;;;;;;4.50;2.73;;;;;;;9.06;nan;-24070.03;5077835;28;20205;-74
2022/10/07 00:06:22;;;;;;;3.30;3.00;;;;;;;9.11;nan;-24071.59;5078530;28;20182;-75
2022/10/07 00:08:50;;;;;;;4.17;2.97;;;;;;;9.13;nan;-24072.00;5094209;28;20715;-75
2022/10/07 00:11:20;;;;;;;5.23;3.37;;;;;;;9.16;nan;-24072.84;5094429;28;20237;-76
2022/10/07 00:13:47;;;;;;;4.43;2.90;;;;;;;8.85;nan;-24064.38;5094273;28;20210;-77
2022/10/07 00:16:16;;;;;;;4.30;2.60;;;;;;;9.17;nan;-24073.28;5094537;28;20247;-76
2022/10/07 00:18:42;;;;;;;4.97;2.87;;;;;;;8.78;nan;-24062.38;5075685;28;20176;-78
2022/10/07 00:21:13;;;;;;;6.10;3.63;;;;;;;9.12;nan;-24071.88;5093912;28;20804;-75
2022/10/07 00:23:41;;;;;;;4.20;3.03;;;;;;;9.05;nan;-24069.88;5094334;28;20278;-76
2022/10/07 00:26:09;;;;;;;4.10;3.03;;;;;;;8.72;nan;-24060.56;5093064;28;20173;-76
2022/10/07 00:28:35;;;;;;;5.13;2.67;;;;;;;8.94;nan;-24066.78;5075725;28;20173;-75
2022/10/07 00:31:14;;;;;;;5.27;3.70;;;;;;;8.83;nan;-24063.81;5075747;28;20184;-75
2022/10/07 00:33:40;;;;;;;4.10;3.10;;;;;;;8.14;nan;-24044.28;5094442;28;20180;-74
2022/10/07 00:36:11;;;;;;;2.67;2.43;;;;;;;8.61;nan;-24057.44;5075887;28;20178;-77
2022/10/07 00:38:37;;;;;;;5.03;2.60;;;;;;;8.69;nan;-24059.69;5075859;28;20268;-74
2022/10/07 00:41:03;;;;;;;7.40;3.70;;;;;;;8.63;nan;-24058.16;5093963;28;20177;-78
2022/10/07 00:43:30;;;;;;;3.57;2.73;;;;;;;8.31;nan;-24049.09;5075558;28;20212;-74
2022/10/07 00:46:21;;;;;;;3.37;2.57;;;;;;;8.26;nan;-24047.66;5094007;28;20543;-75
2022/10/07 00:48:47;;;;;;;12.77;2.70;;;;;;;8.10;nan;-24043.28;5075463;28;20169;-76
2022/10/07 00:51:15;;;;;;;7.37;3.27;;;;;;;8.50;nan;-24054.31;5075708;28;20184;-75
2022/10/07 00:53:43;;;;;;;2.60;2.40;;;;;;;8.30;nan;-24048.94;5093474;28;20519;-74
2022/10/07 00:56:09;;;;;;;3.70;2.77;;;;;;;8.30;nan;-24048.81;5093707;28;20286;-75
2022/10/07 00:58:39;;;;;;;3.10;2.60;;;;;;;8.38;nan;-24051.22;5094365;28;20264;-74
2022/10/07 01:01:05;;;;;;;5.30;3.37;;;;;;;8.31;nan;-24049.22;5093480;28;20169;-76
2022/10/07 01:03:30;;;;;;;6.77;3.50;;;;;;;7.82;nan;-24035.34;5075665;28;20173;-77
2022/10/07 01:05:55;;;;;;;7.83;3.27;;;;;;;8.19;nan;-24045.81;5093329;28;20170;-77
2022/10/07 01:08:22;;;;;;;5.33;3.63;;;;;;;7.85;nan;-24036.34;5093892;28;20204;-77
2022/10/07 01:11:00;;;;;;;4.77;3.63;;;;;;;8.18;nan;-24045.53;5093476;28;20173;-75
2022/10/07 01:13:38;;;;;;;3.87;2.87;;;;;;;8.16;nan;-24044.97;5093566;28;20644;-78
2022/10/07 01:16:38;;;;;;;3.33;2.93;;;;;;;8.36;nan;-24050.66;5093176;28;20671;-76
2022/10/07 01:19:25;;;;;;;2.70;2.47;;;;;;;8.18;nan;-24045.53;5060528;28;20213;-77
2022/10/07 01:22:10;;;;;;;4.93;3.43;;;;;;;8.05;nan;-24041.84;5101049;28;20292;-74
2022/10/07 01:24:51;;;;;;;11.90;3.10;;;;;;;8.12;nan;-24043.69;5096025;28;20195;-78
2022/10/07 01:27:20;;;;;;;4.63;3.40;;;;;;;8.33;nan;-24049.66;5093068;28;20249;-77
2022/10/07 01:30:05;;;;;;;3.20;2.63;;;;;;;8.23;nan;-24046.81;5093175;28;20586;-78
2022/10/07 01:32:35;;;;;;;3.83;2.80;;;;;;;7.86;nan;-24036.63;5093245;28;20172;-74
2022/10/07 01:35:04;;;;;;;5.23;3.70;;;;;;;7.97;nan;-24039.72;5093432;28;20192;-77
2022/10/07 01:37:34;;;;;;;6.03;3.10;;;;;;;7.85;nan;-24036.34;5093391;28;20180;-75
2022/10/07 01:40:06;;;;;;;4.50;3.03;;;;;;;7.93;nan;-24038.59;5093129;28;20173;-78
2022/10/07 01:42:32;;;;;;;3.93;2.63;;;;;;;7.73;nan;-24032.94;5093039;28;20263;-76
2022/10/07 01:44:58;;;;;;;6.13;3.63;;;;;;;7.92;nan;-24038.19;5092850;28;20185;-76
2022/10/07 01:47:27;;;;;;;4.57;2.63;;;;;;;7.33;nan;-24021.75;5092926;28;20578;-75
2022/10/07 01:49:52;;;;;;;3.97;3.57;;;;;;;7.86;nan;-24036.63;5092789;28;20244;-77
2022/10/07 01:52:27;;;;;;;5.20;3.50;;;;;;;7.92;nan;-24038.31;5092954;28;20686;-75
2022/10/07 01:55:05;;;;;;;5.33;3.13;;;;;;;7.78;nan;-24034.22;5074354;28;20244;-78
2022/10/07 01:57:58;;;;;;;3.00;2.57;;;;;;;7.72;nan;-24032.66;5092841;28;20252;-76
2022/10/07 02:00:24;;;;;;;8.50;2.80;;;;;;;7.28;nan;-24020.19;5073815;28;20180;-76
2022/10/07 02:03:11;;;;;;;7.97;3.43;;;;;;;7.62;nan;-24029.81;5074068;28;20193;-78
2022/10/07 02:05:45;;;;;;;5.50;3.67;;;;;;;7.58;nan;-24028.53;5092160;28;20169;-78
2022/10/07 02:08:23;;;;;;;4.37;3.33;;;;;;;7.52;nan;-24027.13;5073469;28;20278;-75
2022/10/07 02:11:00;;;;;;;4.50;3.07;;;;;;;7.59;nan;-24028.97;5092178;28;20241;-76
2022/10/07 02:13:41;;;;;;;5.47;2.90;;;;;;;7.68;nan;-24031.53;5074055;28;20165;-76
2022/10/07 02:16:24;;;;;;;3.07;2.70;;;;;;;7.43;nan;-24024.56;5092500;28;20175;-77
2022/10/07 02:18:51;;;;;;;3.97;2.87;;;;;;;7.36;nan;-24022.59;5092359;28;20176;-77
2022/10/07 02:21:23;;;;;;;4.80;2.83;;;;;;;6.96;nan;-24011.25;5092029;28;20162;-77
2022/10/07 02:23:51;;;;;;;4.20;2.60;;;;;;;7.24;nan;-24019.03;5091935;28;20225;-75
2022/10/07 02:26:21;;;;;;;3.47;2.60;;;;;;;7.38;nan;-24023.16;5091964;28;20238;-75
2022/10/07 02:28:51;;;;;;;6.20;3.50;;;;;;;7.54;nan;-24027.56;5092161;28;20552;-75
2022/10/07 02:31:22;;;;;;;3.47;3.17;;;;;;;7.12;nan;-24015.78;5092163;28;20177;-77
2022/10/07 02:33:52;;;;;;;4.07;2.57;;;;;;;7.38;nan;-24023.16;5092296;28;20553;-78
2022/10/07 02:36:23;;;;;;;9.63;3.10;;;;;;;7.45;nan;-24025.00;5073570;28;20177;-78
2022/10/07 02:38:49;;;;;;;4.50;3.23;;;;;;;7.34;nan;-24022.03;5092079;28;20173;-77
2022/10/07 02:41:32;;;;;;;4.07;2.23;;;;;;;7.55;nan;-24027.84;5073436;28;20186;-75
2022/10/07 02:44:09;;;;;;;4.70;2.87;;;;;;;7.65;nan;-24030.66;5092199;28;20162;-76
2022/10/07 02:46:44;;;;;;;4.53;2.63;;;;;;;7.44;nan;-24024.88;5092003;28;20172;-74
2022/10/07 02:49:13;;;;;;;3.70;2.50;;;;;;;7.84;nan;-24035.91;5092055;28;20655;-75
2022/10/07 02:51:45;;;;;;;4.80;2.93;;;;;;;7.46;nan;-24025.44;5091820;28;20176;-76
2022/10/07 02:54:12;;;;;;;3.20;2.37;;;;;;;7.75;nan;-24033.50;5091857;28;20621;-78
2022/10/07 02:56:40;;;;;;;4.30;3.10;;;;;;;7.78;nan;-24034.22;5095020;28;20528;-77
2022/10/07 02:59:09;;;;;;;3.37;2.70;;;;;;;7.68;nan;-24031.38;5095712;28;20183;-76
2022/10/07 03:01:41;;;;;;;3.53;2.53;;;;;;;7.66;nan;-24030.94;5091202;28;20569;-75
2022/10/07 03:04:07;;;;;;;4.07;2.40;;;;;;;8.14;nan;-24044.28;5091959;28;20173;-76
2022/10/07 03:06:34;;;;;;;4.17;3.00;;;;;;;7.52;nan;-24026.97;5073473;28;20184;-79
2022/10/07 03:09:00;;;;;;;6.37;2.07;;;;;;;7.88;nan;-24037.19;5083370;28;20641;-76
2022/10/07 03:11:25;;;;;;;3.97;2.77;;;;;;;7.74;nan;-24033.22;5083959;28;20184;-78
2022/10/07 03:13:51;;;;;;;5.47;3.00;;;;;;;7.70;nan;-24031.94;5082182;28;20181;-75
2022/10/07 03:16:16;;;;;;;4.93;2.73;;;;;;;7.73;nan;-24032.78;5094354;28;20185;-75
2022/10/07 03:18:42;;;;;;;4.20;2.23;;;;;;;7.92;nan;-24038.19;5091972;28;20262;-78
2022/10/07 03:21:07;;;;;;;2.87;2.23;;;;;;;7.57;nan;-24028.25;5078876;28;20211;-78
2022/10/07 03:23:33;;;;;;;6.20;2.70;;;;;;;6.85;nan;-24008.13;5068417;28;20216;-75
2022/10/07 03:25:59;;;;;;;4.63;2.87;;;;;;;7.39;nan;-24023.44;5068462;28;20594;-78
2022/10/07 03:28:27;;;;;;;3.93;2.87;;;;;;;7.75;nan;-24033.50;5078972;28;20189;-77
2022/10/07 03:31:01;;;;;;;2.80;2.30;;;;;;;7.72;nan;-24032.50;5067349;28;20199;-76
2022/10/07 03:33:27;;;;;;;3.20;2.70;;;;;;;7.81;nan;-24035.06;5061893;28;20193;-75
2022/10/07 03:35:52;;;;;;;4.40;3.07;;;;;;;7.71;nan;-24032.22;5068054;28;20179;-78
2022/10/07 03:38:18;;;;;;;4.17;2.33;;;;;;;7.61;nan;-24029.41;5080465;28;20189;-78
2022/10/07 03:40:43;;;;;;;5.07;2.63;;;;;;;7.78;nan;-24034.34;5080024;28;20514;-77
2022/10/07 03:43:09;;;;;;;3.70;2.33;;;;;;;7.53;nan;-24027.41;5080876;28;20265;-78
2022/10/07 03:45:36;;;;;;;3.73;3.00;;;;;;;7.86;nan;-24036.63;5078341;28;20213;-77
2022/10/07 03:48:01;;;;;;;3.53;2.60;;;;;;;7.79;nan;-24034.63;5079651;28;20667;-76
2022/10/07 03:50:27;;;;;;;3.83;2.53;;;;;;;7.57;nan;-24028.41;5079573;28;20217;-78
2022/10/07 03:52:52;;;;;;;3.17;2.37;;;;;;;7.81;nan;-24035.22;5067810;28;20816;-75
2022/10/07 03:55:18;;;;;;;3.13;2.80;;;;;;;7.97;nan;-24039.59;5078138;28;20185;-78
2022/10/07 03:57:49;;;;;;;5.50;2.40;;;;;;;8.02;nan;-24040.88;5077616;28;20247;-75
2022/10/07 04:00:16;;;;;;;4.27;2.70;;;;;;;7.98;nan;-24040.03;5067548;28;20204;-75
2022/10/07 04:02:42;;;;;;;2.30;2.10;;;;;;;7.92;nan;-24038.31;5079369;28;20667;-76
2022/10/07 04:05:08;;;;;;;3.10;2.63;;;;;;;8.02;nan;-24041.00;5077665;28;20258;-75
2022/10/07 04:07:33;;;;;;;2.97;2.33;;;;;;;7.98;nan;-24040.03;5079660;28;20177;-77
2022/10/07 04:09:59;;;;;;;2.40;2.20;;;;;;;7.91;nan;-24037.88;5071293;28;20280;-74
2022/10/07 04:12:24;;;;;;;4.67;2.60;;;;;;;8.07;nan;-24042.44;5092985;28;20239;-75
2022/10/07 04:14:50;;;;;;;3.20;2.27;;;;;;;8.09;nan;-24042.84;5079625;28;20280;-76
2022/10/07 04:17:17;;;;;;;2.10;1.90;;;;;;;7.70;nan;-24031.94;5078149;28;20188;-78
2022/10/07 04:19:44;;;;;;;3.77;2.03;;;;;;;7.89;nan;-24037.31;5067336;28;20223;-75
2022/10/07 04:22:09;;;;;;;3.33;2.30;;;;;;;7.84;nan;-24036.06;5080469;28;20201;-76
2022/10/07 04:24:35;;;;;;;2.20;2.03;;;;;;;7.61;nan;-24029.53;5090546;28;20247;-77
2022/10/07 04:27:03;;;;;;;2.67;2.23;;;;;;;7.98;nan;-24040.03;5102496;28;20640;-75
2022/10/07 04:29:30;;;;;;;2.67;2.23;;;;;;;7.55;nan;-24027.97;5082418;28;20193;-77
2022/10/07 04:31:58;;;;;;;4.90;2.20;;;;;;;7.40;nan;-24023.59;5084326;28;20223;-77
2022/10/07 04:34:24;;;;;;;3.83;2.13;;;;;;;7.90;nan;-24037.75;5072022;28;20649;-77
2022/10/07 04:36:53;;;;;;;2.00;1.80;;;;;;;7.78;nan;-24034.34;5103226;28;20196;-78
2022/10/07 04:39:18;;;;;;;2.27;1.87;;;;;;;7.81;nan;-24035.22;5090598;28;20180;-76
2022/10/07 04:41:44;;;;;;;2.90;2.10;;;;;;;7.84;nan;-24036.06;5098149;28;20766;-76
2022/10/07 04:44:09;;;;;;;4.50;2.30;;;;;;;7.74;nan;-24033.22;5058317;28;20240;-75
2022/10/07 04:46:35;;;;;;;3.93;2.70;;;;;;;7.75;nan;-24033.38;5098652;28;20517;-75
2022/10/07 04:49:00;;;;;;;2.37;2.17;;;;;;;7.39;nan;-24023.44;5091644;28;20213;-75
2022/10/07 04:51:26;;;;;;;2.77;2.47;;;;;;;8.01;nan;-24040.72;5098202;28;20673;-77
2022/10/07 04:53:52;;;;;;;3.77;2.30;;;;;;;7.88;nan;-24037.03;5084257;28;20319;-75
2022/10/07 04:56:18;;;;;;;2.23;1.97;;;;;;;7.62;nan;-24029.81;5087486;28;20671;-76
2022/10/07 04:58:43;;;;;;;3.00;2.20;;;;;;;7.93;nan;-24038.59;5061524;28;20193;-78
2022/10/07 05:01:10;;;;;;;2.80;2.33;;;;;;;7.94;nan;-24038.88;5093131;28;20703;-78
2022/10/07 05:03:37;;;;;;;3.70;2.20;;;;;;;7.65;nan;-24030.66;5092219;28;20198;-61
2022/10/07 05:06:04;;;;;;;3.57;2.77;;;;;;;8.11;nan;-24043.41;5098745;28;20194;-62
2022/10/07 05:08:30;;;;;;;1.87;1.73;;;;;;;8.14;nan;-24044.28;5092061;28;20173;-64
2022/10/07 05:10:57;;;;;;;3.43;2.30;;;;;;;8.04;nan;-24041.56;5098855;28;20188;-65
2022/10/07 05:13:24;;;;;;;2.60;2.33;;;;;;;7.90;nan;-24037.63;5092990;28;20185;-64
2022/10/07 05:16:01;;;;;;;3.43;2.43;;;;;;;8.15;nan;-24044.56;5095459;28;20184;-64
2022/10/07 05:18:27;;;;;;;3.57;2.47;;;;;;;8.45;nan;-24052.91;5092178;28;20185;-63
2022/10/07 05:20:53;;;;;;;4.07;2.70;;;;;;;8.50;nan;-24054.47;5098436;28;20564;-64
2022/10/07 05:23:22;;;;;;;4.23;2.77;;;;;;;8.61;nan;-24057.56;5090801;28;20236;-63
2022/10/07 05:25:59;;;;;;;4.20;2.90;;;;;;;8.42;nan;-24052.34;5095265;28;20191;-65
2022/10/07 05:28:25;;;;;;;3.87;2.43;;;;;;;8.83;nan;-24063.81;5091874;28;20519;-64
2022/10/07 05:31:04;;;;;;;2.80;2.20;;;;;;;9.25;nan;-24075.53;5095001;28;20187;-63
2022/10/07 05:33:30;;;;;;;2.47;2.27;;;;;;;8.95;nan;-24066.91;5092376;28;20325;-62
2022/10/07 05:35:57;;;;;;;3.87;2.23;;;;;;;9.16;nan;-24072.84;5091567;28;20181;-64
2022/10/07 05:38:22;;;;;;;3.53;2.40;;;;;;;9.56;nan;-24084.16;5089240;28;20182;-62
2022/10/07 05:40:57;;;;;;;4.10;2.90;;;;;;;9.15;nan;-24072.56;5085829;28;20474;-63
2022/10/07 05:43:24;;;;;;;4.23;2.87;;;;;;;9.83;nan;-24091.50;5091475;28;20205;-65
2022/10/07 05:45:58;;;;;;;6.23;2.63;;;;;;;10.05;nan;-24097.88;5092097;28;20173;-65
2022/10/07 05:48:24;;;;;;;4.53;3.20;;;;;;;10.07;nan;-24098.28;5092143;28;20187;-64
2022/10/07 05:50:49;;;;;;;3.17;2.60;;;;;;;9.31;nan;-24077.25;5092201;28;20169;-62
2022/10/07 05:53:14;;;;;;;3.90;2.80;;;;;;;9.45;nan;-24081.06;5092405;28;20165;-63
2022/10/07 05:55:40;;;;;;;4.70;2.37;;;;;;;10.56;nan;-24112.13;5092244;28;20659;-63
2022/10/07 05:58:06;;;;;;;3.03;2.60;;;;;;;10.68;nan;-24115.22;5092050;28;20165;-61
2022/10/07 06:00:34;;;;;;;4.03;2.60;;;;;;;10.99;nan;-24123.97;5091261;28;20668;-63
2022/10/07 06:03:01;;;;;;;3.73;2.60;;;;;;;11.17;nan;-24128.91;5092632;28;20201;-62
2022/10/07 06:05:30;;;;;;;3.03;2.73;;;;;;;11.53;nan;-24139.19;5073689;28;20173;-64
2022/10/07 06:07:55;;;;;;;2.87;2.27;;;;;;;11.48;nan;-24137.78;5092089;28;20169;-61
2022/10/07 06:13:07;;;;;;;4.10;2.67;;;;;;;11.82;nan;-24147.22;5050016;28;20276;-64
2022/10/07 06:15:33;;;;;;;3.60;2.20;;;;;;;12.16;nan;-24156.53;5092122;28;20555;-64
2022/10/07 06:17:59;;;;;;;2.67;2.20;;;;;;;12.36;nan;-24162.28;5092537;28;20240;-62
2022/10/07 06:20:25;;;;;;;2.72;2.13;;;;;;;12.04;nan;-24153.28;5092422;28;20170;-64
2022/10/07 06:22:54;;;;;;;4.85;2.53;;;;;;;12.62;nan;-24169.31;5091851;28;20235;-63
2022/10/07 06:25:19;;;;;;;2.50;2.30;;;;;;;12.79;nan;-24174.09;5092204;28;20176;-63
2022/10/07 06:27:45;;;;;;;3.42;2.35;;;;;;;12.67;nan;-24170.88;5073591;28;20551;-63
2022/10/07 06:30:11;;;;;;;1.92;1.77;;;;;;;13.25;nan;-24187.03;5092056;28;20177;-62
2022/10/07 06:32:37;;;;;;;2.20;2.00;;;;;;;13.25;nan;-24187.03;5092008;28;20287;-64
2022/10/07 06:35:03;;;;;;;2.10;1.90;;;;;;;13.20;nan;-24185.50;5091858;28;20616;-63
2022/10/07 06:37:30;;;;;;;3.22;2.10;;;;;;;13.54;nan;-24194.91;5092040;28;20173;-62
2022/10/07 06:39:55;;;;;;;2.55;1.98;;;;;;;13.84;nan;-24203.19;5091765;28;20260;-63
2022/10/07 06:42:21;;;;;;;3.67;2.42;;;;;;;13.68;nan;-24198.97;5092124;28;20296;-64
2022/10/07 06:44:46;;;;;;;9.40;4.03;;;;;;;13.77;nan;-24201.38;5092083;28;20173;-62
2022/10/07 06:47:12;;;;;;;4.45;2.88;;;;;;;14.26;nan;-24214.97;5092123;28;20193;-64
2022/10/07 06:49:37;;;;;;;4.68;2.33;;;;;;;14.52;nan;-24222.28;5092007;28;20260;-64
2022/10/07 06:52:03;;;;;;;2.30;1.83;;;;;;;14.49;nan;-24221.44;5091526;28;20253;-63
2022/10/07 06:54:28;;;;;;;2.08;1.88;;;;;;;12.25;nan;-24159.19;5091500;28;20170;-65
2022/10/07 06:56:54;;;;;;;3.95;2.47;;;;;;;14.94;nan;-24233.75;5092048;28;20235;-61
2022/10/07 06:59:19;;;;;;;2.85;1.83;;;;;;;14.85;nan;-24231.38;5091646;28;20585;-63
2022/10/07 07:01:45;;;;;;;3.13;2.45;;;;;;;15.17;nan;-24240.22;5091627;28;20209;-63
2022/10/07 07:04:10;;;;;;;4.13;2.33;;;;;;;15.20;nan;-24241.06;5091745;28;20637;-64
2022/10/07 07:06:37;;;;;;;4.13;2.40;;;;;;;15.23;nan;-24241.75;5091643;28;20268;-64
2022/10/07 07:09:04;;;;;;;2.72;1.95;;;;;;;15.28;nan;-24243.16;5091628;28;20177;-64
2022/10/07 07:11:37;;;;;;;3.78;1.88;;;;;;;15.63;nan;-24252.81;5091841;28;20165;-64
2022/10/07 07:14:07;;;;;;;2.88;1.80;;;;;;;15.67;nan;-24253.94;5091897;28;20640;-64
2022/10/07 07:16:34;;;;;;;1.77;1.67;;;;;;;15.53;nan;-24250.16;5091534;28;20169;-62
2022/10/07 07:19:01;;;;;;;3.10;1.92;;;;;;;16.10;nan;-24265.81;5091616;28;20215;-64
2022/10/07 07:21:27;;;;;;;2.80;1.80;;;;;;;15.99;nan;-24262.88;5093194;28;20176;-62
2022/10/07 07:23:53;;;;;;;2.83;2.10;;;;;;;16.43;nan;-24275.06;5092369;28;20590;-64
2022/10/07 07:26:19;;;;;;;2.55;1.70;;;;;;;16.00;nan;-24263.03;5091067;28;20551;-64
2022/10/07 07:28:50;;;;;;;2.97;1.98;;;;;;;15.87;nan;-24259.53;5073021;28;20226;-64
2022/10/07 07:31:16;;;;;;;2.38;1.98;;;;;;;16.44;nan;-24275.19;5091443;28;20158;-62
2022/10/07 07:33:41;;;;;;;2.33;1.92;;;;;;;16.22;nan;-24269.31;5091702;28;20192;-64
2022/10/07 07:36:15;;;;;;;2.95;2.00;;;;;;;16.59;nan;-24279.41;5091842;28;20613;-62
2022/10/07 07:38:42;;;;;;;2.22;1.92;;;;;;;16.94;nan;-24289.16;5091351;28;20268;-63
2022/10/07 07:41:09;;;;;;;2.53;1.55;;;;;;;17.03;nan;-24291.69;5091298;28;20254;-65
2022/10/07 07:43:34;;;;;;;3.20;2.05;;;;;;;16.63;nan;-24280.50;5091041;28;20201;-64
2022/10/07 07:46:00;;;;;;;2.28;1.88;;;;;;;17.20;nan;-24296.28;5091558;28;20253;-64
2022/10/07 07:48:26;;;;;;;1.90;1.70;;;;;;;17.35;nan;-24300.34;5091400;28;20629;-64
2022/10/07 07:50:51;;;;;;;4.47;2.05;;;;;;;17.54;nan;-24305.63;5090941;28;20196;-62
2022/10/07 07:53:17;;;;;;;2.80;2.17;;;;;;;17.28;nan;-24298.53;5072817;28;20641;-61
2022/10/07 07:55:53;;;;;;;2.95;2.13;;;;;;;17.67;nan;-24309.41;5091604;28;20242;-61
2022/10/07 07:58:20;;;;;;;3.25;2.10;;;;;;;17.88;nan;-24315.00;5091347;28;20161;-64
2022/10/07 08:01:00;;;;;;;4.18;2.50;;;;;;;17.49;nan;-24304.38;5091435;28;20644;-63
2022/10/07 08:03:26;;;;;;;3.63;2.10;;;;;;;17.98;nan;-24317.91;5072562;28;20193;-63
2022/10/07 08:05:52;;;;;;;2.55;1.98;;;;;;;18.09;nan;-24320.97;5093230;28;20238;-64
2022/10/07 08:08:17;;;;;;;4.45;2.15;;;;;;;18.20;nan;-24323.78;5094879;28;20180;-63
2022/10/07 08:10:43;;;;;;;2.63;2.10;;;;;;;18.40;nan;-24329.34;5095153;28;20177;-62
2022/10/07 08:13:11;;;;;;;4.65;2.22;;;;;;;18.45;nan;-24330.88;5095185;28;20621;-63
2022/10/07 08:15:36;;;;;;;6.28;2.20;;;;;;;18.45;nan;-24330.88;5094764;28;20652;-62
2022/10/07 08:18:04;;;;;;;5.03;2.55;;;;;;;18.61;nan;-24335.06;5094676;28;20165;-63
2022/10/07 08:20:30;;;;;;;3.40;1.98;;;;;;;18.47;nan;-24331.44;5094744;28;20165;-64
2022/10/07 08:22:55;;;;;;;1.98;1.75;;;;;;;18.96;nan;-24344.81;5094149;28;20229;-62
2022/10/07 08:25:21;;;;;;;3.75;2.30;;;;;;;19.03;nan;-24346.63;5094630;28;20535;-65
2022/10/07 08:27:47;;;;;;;6.88;2.03;;;;;;;19.06;nan;-24347.44;5094814;28;20169;-63
2022/10/07 08:30:13;;;;;;;2.63;1.77;;;;;;;19.02;nan;-24346.34;5094434;28;20671;-63
2022/10/07 08:32:39;;;;;;;3.25;1.80;;;;;;;19.30;nan;-24354.28;5094786;28;20264;-64
2022/10/07 08:35:04;;;;;;;2.60;1.83;;;;;;;19.11;nan;-24348.97;5094741;28;20173;-62
2022/10/07 08:37:30;;;;;;;4.35;1.50;;;;;;;19.41;nan;-24357.19;5094557;28;20652;-64
2022/10/07 08:39:55;;;;;;;2.10;1.83;;;;;;;19.50;nan;-24359.69;5093957;28;20165;-62
2022/10/07 08:42:30;;;;;;;5.20;1.95;;;;;;;19.66;nan;-24364.16;5093609;28;20204;-65
2022/10/07 08:44:56;;;;;;;2.10;1.55;;;;;;;19.57;nan;-24361.50;5094185;28;20264;-65
2022/10/07 08:47:33;;;;;;;1.67;1.48;;;;;;;20.09;nan;-24375.97;5093642;28;20193;-62
2022/10/07 08:50:20;;;;;;;3.85;1.80;;;;;;;19.99;nan;-24373.19;5094051;28;20166;-64
2022/10/07 08:52:55;;;;;;;1.80;1.60;;;;;;;19.89;nan;-24370.41;5093677;28;20177;-62
2022/10/07 08:55:33;;;;;;;2.28;1.50;;;;;;;20.16;nan;-24377.75;5093899;28;20188;-62
2022/10/07 08:58:18;;;;;;;2.20;1.60;;;;;;;20.42;nan;-24385.00;5092671;28;20173;-64
2022/10/07 09:01:18;;;;;;;2.40;1.73;;;;;;;20.30;nan;-24381.66;5093432;28;20169;-65
2022/10/07 09:04:00;;;;;;;4.10;1.77;;;;;;;20.72;nan;-24393.19;5093319;28;20246;-64
2022/10/07 09:07:08;;;;;;;1.98;1.52;;;;;;;20.63;nan;-24390.69;5093273;28;20173;-64
2022/10/07 09:09:45;;;;;;;2.92;1.80;;;;;;;20.66;nan;-24391.66;5093475;28;20169;-62
2022/10/07 09:12:26;;;;;;;1.90;1.60;;;;;;;20.72;nan;-24393.19;5093002;28;20632;-62
2022/10/07 09:14:55;;;;;;;2.20;1.67;;;;;;;21.23;nan;-24407.03;5093205;28;20170;-66
2022/10/07 09:17:36;;;;;;;3.03;1.95;;;;;;;21.05;nan;-24402.34;5092208;28;20177;-63
2022/10/07 09:20:15;;;;;;;3.22;1.60;;;;;;;21.22;nan;-24406.78;5093277;28;20168;-63
2022/10/07 09:22:44;;;;;;;2.97;1.70;;;;;;;21.59;nan;-24417.03;5092633;28;20529;-63
2022/10/07 09:25:10;;;;;;;2.05;1.50;;;;;;;21.72;nan;-24420.63;5093029;28;20632;-62
2022/10/07 09:27:35;;;;;;;1.73;1.35;;;;;;;21.90;nan;-24425.63;5092913;28;20179;-62
2022/10/07 09:30:01;;;;;;;3.83;2.03;;;;;;;21.90;nan;-24425.47;5092786;28;20185;-63
2022/10/07 09:32:27;;;;;;;1.77;1.40;;;;;;;18.75;nan;-24338.97;5091870;28;20177;-62
2022/10/07 09:34:52;;;;;;;2.15;1.52;;;;;;;21.71;nan;-24420.22;5092746;28;20166;-63
2022/10/07 09:37:26;;;;;;;4.32;1.70;;;;;;;21.96;nan;-24427.16;5093119;28;20177;-65
2022/10/07 09:39:54;;;;;;;2.85;1.58;;;;;;;21.85;nan;-24424.22;5092533;28;20177;-63
2022/10/07 09:42:41;;;;;;;2.53;1.48;;;;;;;22.24;nan;-24434.75;5092567;28;20200;-63
2022/10/07 09:45:25;;;;;;;1.95;1.40;;;;;;;21.98;nan;-24427.84;5092795;28;20238;-62
2022/10/07 09:47:54;;;;;;;3.25;1.60;;;;;;;21.79;nan;-24422.44;5092561;28;20192;-63
2022/10/07 09:50:35;;;;;;;3.33;1.90;;;;;;;22.15;nan;-24432.41;5092518;28;20264;-62
2022/10/07 09:53:02;;;;;;;2.30;1.58;;;;;;;21.97;nan;-24427.56;5092467;28;20169;-64
2022/10/07 09:55:38;;;;;;;2.28;1.40;;;;;;;22.37;nan;-24438.34;5092520;28;20559;-63
2022/10/07 09:58:15;;;;;;;2.25;1.60;;;;;;;22.30;nan;-24436.41;5092196;28;20218;-61
2022/10/07 10:00:42;;;;;;;2.50;1.63;;;;;;;22.36;nan;-24438.06;5092898;28;20161;-65
2022/10/07 10:03:08;;;;;;;3.30;1.27;;;;;;;22.20;nan;-24433.66;5092326;28;20197;-64
2022/10/07 10:05:36;;;;;;;2.38;1.80;;;;;;;22.19;nan;-24433.50;5092244;28;20162;-65
2022/10/07 10:08:06;;;;;;;1.80;1.45;;;;;;;21.97;nan;-24427.56;5092345;28;20287;-63
2022/10/07 10:10:35;;;;;;;2.58;1.75;;;;;;;18.96;nan;-24344.81;5092223;28;20185;-64
2022/10/07 10:13:03;;;;;;;2.17;1.50;;;;;;;22.45;nan;-24440.69;5092439;28;20252;-65
2022/10/07 10:15:35;;;;;;;1.48;1.38;;;;;;;22.22;nan;-24434.19;5092155;28;20174;-63
2022/10/07 10:18:02;;;;;;;2.15;1.60;;;;;;;22.17;nan;-24432.81;5092539;28;20177;-64
2022/10/07 10:20:42;;;;;;;2.15;1.50;;;;;;;22.44;nan;-24440.44;5092353;28;20169;-65
2022/10/07 10:23:28;;;;;;;3.75;1.73;;;;;;;22.55;nan;-24443.34;5092000;28;20240;-64
2022/10/07 10:29:12;;;;;;;1.92;1.67;;;;;;;22.25;nan;-24435.16;5092137;28;20238;-66
2022/10/07 10:31:50;;;;;;;5.75;2.67;;;;;;;22.55;nan;-24443.19;5092251;28;20283;-64
2022/10/07 10:34:42;;;;;;;1.50;1.40;;;;;;;22.82;nan;-24450.81;5092406;28;20204;-63
2022/10/07 10:37:17;;;;;;;2.55;1.58;;;;;;;22.67;nan;-24446.66;5091982;28;20581;-62
2022/10/07 10:40:07;;;;;;;1.70;1.50;;;;;;;23.05;nan;-24456.88;5092015;28;20169;-62
2022/10/07 10:43:00;;;;;;;2.13;1.55;;;;;;;23.13;nan;-24459.09;5091925;28;20213;-64
2022/10/07 10:45:46;;;;;;;1.40;1.30;;;;;;;22.71;nan;-24447.63;5091694;28;20572;-64
2022/10/07 10:48:29;;;;;;;3.13;1.77;;;;;;;23.15;nan;-24459.66;5092120;28;20252;-63
2022/10/07 10:51:24;;;;;;;2.50;1.63;;;;;;;23.00;nan;-24455.63;5091816;28;20169;-65
2022/10/07 10:54:04;;;;;;;1.40;1.23;;;;;;;23.13;nan;-24459.22;5091780;28;20193;-64
2022/10/07 10:56:40;;;;;;;1.80;1.33;;;;;;;23.07;nan;-24457.44;5092383;28;20284;-64
2022/10/07 10:59:08;;;;;;;3.33;1.60;;;;;;;23.19;nan;-24460.88;5091847;28;20193;-64
2022/10/07 11:01:37;;;;;;;4.63;1.58;;;;;;;23.25;nan;-24462.56;5091930;28;20597;-64
2022/10/07 11:04:31;;;;;;;1.70;1.50;;;;;;;23.13;nan;-24459.22;5091997;28;20222;-66
2022/10/07 11:07:08;;;;;;;1.83;1.42;;;;;;;23.52;nan;-24469.72;5092669;28;20541;-63
2022/10/07 11:09:40;;;;;;;1.52;1.38;;;;;;;23.28;nan;-24463.25;5092036;28;20150;-62
2022/10/07 11:12:22;;;;;;;2.13;1.60;;;;;;;23.22;nan;-24461.56;5091670;28;20181;-64
2022/10/07 11:14:56;;;;;;;2.00;1.60;;;;;;;23.15;nan;-24459.78;5090187;28;20173;-64
2022/10/07 11:17:27;;;;;;;2.28;1.58;;;;;;;23.30;nan;-24463.78;5090700;28;20184;-62
2022/10/07 11:20:04;;;;;;;2.40;1.45;;;;;;;23.37;nan;-24465.72;5091531;28;20158;-64
2022/10/07 11:22:38;;;;;;;2.90;1.70;;;;;;;23.57;nan;-24471.25;5091262;28;20271;-61
2022/10/07 11:25:14;;;;;;;2.00;1.50;;;;;;;23.32;nan;-24464.34;5091224;28;20207;-62
2022/10/07 11:27:44;;;;;;;2.22;1.42;;;;;;;23.54;nan;-24470.28;5091035;28;20157;-63
2022/10/07 11:30:21;;;;;;;1.60;1.50;;;;;;;23.03;nan;-24456.47;5091219;28;20697;-65
2022/10/07 11:33:10;;;;;;;2.22;1.48;;;;;;;23.23;nan;-24462.00;5090975;28;20168;-63
2022/10/07 11:35:49;;;;;;;2.13;1.65;;;;;;;23.27;nan;-24462.97;5072138;28;20188;-66
2022/10/07 11:38:28;;;;;;;1.45;1.35;;;;;;;22.74;nan;-24448.59;5091723;28;20173;-65
2022/10/07 11:41:02;;;;;;;2.92;1.48;;;;;;;22.86;nan;-24451.91;5093178;28;20697;-67
2022/10/07 11:43:44;;;;;;;2.10;1.30;;;;;;;22.79;nan;-24449.97;5095224;28;20660;-64
2022/10/07 11:46:27;;;;;;;1.60;1.50;;;;;;;22.97;nan;-24454.66;5094400;28;20173;-65
2022/10/07 11:49:05;;;;;;;1.33;1.23;;;;;;;22.70;nan;-24447.34;5095215;28;20537;-63
2022/10/07 11:51:53;;;;;;;4.82;2.42;;;;;;;22.03;nan;-24429.09;5094260;28;20180;-62
2022/10/07 11:54:22;;;;;;;5.72;1.60;;;;;;;22.83;nan;-24451.09;5094773;28;20247;-65
2022/10/07 11:56:54;;;;;;;1.80;1.40;;;;;;;19.45;nan;-24358.16;5094712;28;20586;-64
2022/10/07 11:59:28;;;;;;;2.33;1.65;;;;;;;22.89;nan;-24452.72;5094459;28;20554;-63
2022/10/07 12:01:54;;;;;;;3.90;1.85;;;;;;;23.27;nan;-24463.09;5094731;28;20364;-64
2022/10/07 12:04:24;;;;;;;1.50;1.40;;;;;;;23.32;nan;-24464.34;5094043;28;20302;-63
2022/10/07 12:07:27;;;;;;;1.60;1.40;;;;;;;23.22;nan;-24461.56;5094406;28;20184;-62
2022/10/07 12:09:58;;;;;;;2.63;1.60;;;;;;;23.34;nan;-24464.91;5094349;28;20662;-63